Time;durP1;ratioP1;P1;durP2;ratioP2;P2;SDS_P1;SDS_P2;PMS_P1;PMS_P2;Temp;Humidity;BMP_temperature;BMP_pressure;BME280_temperature;BME280_humidity;BME280_pressure;Samples;Min_cycle;Max_cycle;Signal;HPM_P1;HPM_P2
2022/04/22 00:01:26;;;;;;;13.35;10.65;;;;;;;11.84;55.00;99579.53;4044083;29;20039;-63
2022/04/22 00:03:29;;;;;;;11.93;9.40;;;;;;;11.87;56.21;99574.31;4033649;29;20041;-63
2022/04/22 00:05:33;;;;;;;14.75;10.40;;;;;;;11.90;55.86;99578.66;4033190;29;20059;-63
2022/04/22 00:07:36;;;;;;;14.88;10.63;;;;;;;11.89;55.47;99576.91;4035971;29;20514;-63
2022/04/22 00:09:39;;;;;;;15.57;11.75;;;;;;;11.98;54.83;99570.81;4034386;29;20060;-63
2022/04/22 00:11:43;;;;;;;13.82;10.27;;;;;;;11.73;55.74;99570.91;4048201;29;20526;-63
2022/04/22 00:13:46;;;;;;;15.07;10.98;;;;;;;11.70;56.51;99571.78;4037767;29;20041;-63
2022/04/22 00:15:49;;;;;;;13.63;10.95;;;;;;;11.69;56.31;99572.66;4037723;29;20503;-63
2022/04/22 00:17:52;;;;;;;17.33;11.50;;;;;;;11.81;55.51;99569.16;4035064;29;20052;-63
2022/04/22 00:19:55;;;;;;;15.18;11.88;;;;;;;11.72;55.96;99566.56;4037193;29;20044;-63
2022/04/22 00:21:59;;;;;;;15.32;11.45;;;;;;;11.84;55.30;99565.63;4047529;29;20518;-62
2022/04/22 00:24:02;;;;;;;14.60;11.77;;;;;;;11.80;56.12;99557.00;4054071;29;20513;-62
2022/04/22 00:26:05;;;;;;;15.98;11.80;;;;;;;11.53;56.02;99561.47;4040568;29;20045;-62
2022/04/22 00:28:08;;;;;;;14.93;10.80;;;;;;;11.48;56.88;99560.59;4030954;29;20049;-62
2022/04/22 00:30:12;;;;;;;14.13;11.35;;;;;;;11.51;56.19;99555.38;4042916;29;20048;-63
2022/04/22 00:32:15;;;;;;;15.95;12.55;;;;;;;11.52;56.32;99549.31;4032156;29;20498;-63
2022/04/22 00:34:18;;;;;;;17.63;12.55;;;;;;;11.62;56.02;99554.47;4034686;29;20424;-63
2022/04/22 00:36:21;;;;;;;15.75;11.63;;;;;;;11.50;57.03;99548.44;4036911;29;20041;-63
2022/04/22 00:38:25;;;;;;;16.65;12.07;;;;;;;11.55;56.52;99550.16;4034458;29;20041;-62
2022/04/22 00:40:28;;;;;;;17.13;12.98;;;;;;;11.51;57.16;99542.38;4031138;29;20491;-62
2022/04/22 00:42:31;;;;;;;14.65;11.65;;;;;;;11.40;57.51;99538.09;4037502;29;20517;-63
2022/04/22 00:44:34;;;;;;;16.10;12.55;;;;;;;11.38;56.97;99540.69;4035177;29;20131;-63
2022/04/22 00:46:38;;;;;;;15.88;12.05;;;;;;;11.37;57.51;99541.56;4034919;29;20052;-62
2022/04/22 00:48:41;;;;;;;14.90;12.35;;;;;;;11.38;57.07;99532.03;4034876;29;20043;-63
2022/04/22 00:50:44;;;;;;;14.85;12.48;;;;;;;11.36;56.76;99534.66;4034923;29;20120;-63
2022/04/22 00:52:47;;;;;;;17.73;12.38;;;;;;;11.33;57.43;99532.03;4049076;29;20536;-62
2022/04/22 00:54:51;;;;;;;15.43;11.70;;;;;;;11.44;57.04;99532.00;4038464;29;20044;-63
2022/04/22 00:56:54;;;;;;;17.25;13.07;;;;;;;11.32;57.16;99525.13;4034135;29;20108;-63
2022/04/22 00:58:59;;;;;;;15.80;12.02;;;;;;;11.21;57.73;99526.88;4035133;29;20555;-62
2022/04/22 01:01:02;;;;;;;15.95;12.32;;;;;;;11.20;57.65;99538.16;4035094;29;20045;-63
2022/04/22 01:03:06;;;;;;;16.35;12.85;;;;;;;11.18;57.74;99531.25;4035444;29;20096;-62
2022/04/22 01:09:52;;;;;;;16.25;13.20;;;;;;;11.24;57.87;99524.28;4036905;29;20039;-61
2022/04/22 01:11:55;;;;;;;17.27;12.77;;;;;;;11.29;58.07;99507.78;4036851;29;20040;-62
2022/04/22 01:13:59;;;;;;;19.13;12.95;;;;;;;11.30;57.52;99519.03;4036351;29;20049;-62
2022/04/22 01:16:02;;;;;;;16.45;12.98;;;;;;;11.34;57.07;99511.19;4036474;29;20045;-62
2022/04/22 01:18:06;;;;;;;14.65;11.07;;;;;;;11.10;57.58;99514.78;4032846;29;20368;-61
2022/04/22 01:20:09;;;;;;;17.42;13.27;;;;;;;11.10;57.74;99514.78;4015212;29;20050;-61
2022/04/22 01:22:14;;;;;;;16.48;13.23;;;;;;;11.08;58.52;99510.44;4028476;29;20072;-62
2022/04/22 01:24:17;;;;;;;17.73;13.57;;;;;;;11.01;58.42;99512.22;4032472;29;20499;-62
2022/04/22 01:26:20;;;;;;;19.02;14.23;;;;;;;11.03;58.47;99512.22;4045583;29;20056;-61
2022/04/22 01:28:24;;;;;;;21.55;13.88;;;;;;;11.07;57.95;99507.00;4033766;29;20089;-62
2022/04/22 01:30:27;;;;;;;19.37;14.00;;;;;;;11.01;58.15;99507.03;4034512;29;20045;-61
2022/04/22 01:32:30;;;;;;;17.67;14.90;;;;;;;11.08;58.67;99503.53;4033197;29;20409;-62
2022/04/22 01:34:34;;;;;;;18.98;14.35;;;;;;;11.02;58.71;99506.13;4040924;29;20040;-62
2022/04/22 01:36:37;;;;;;;17.08;13.55;;;;;;;10.92;58.34;99507.03;4039696;29;20088;-62
2022/04/22 01:38:42;;;;;;;17.77;13.73;;;;;;;10.93;58.31;99503.56;4040047;29;20141;-62
2022/04/22 01:40:45;;;;;;;18.70;14.82;;;;;;;10.95;59.36;99497.50;4050140;29;20514;-62
2022/04/22 01:42:48;;;;;;;18.02;14.07;;;;;;;10.97;59.31;99487.09;4033044;29;20500;-62
2022/04/22 01:44:51;;;;;;;18.63;14.70;;;;;;;11.02;58.95;99489.66;4037717;29;20074;-62
2022/04/22 01:46:55;;;;;;;20.83;14.98;;;;;;;10.91;58.71;99489.72;4032379;29;20092;-62
2022/04/22 01:48:58;;;;;;;20.50;14.57;;;;;;;10.91;59.30;99487.97;4036144;29;20411;-62
2022/04/22 01:51:01;;;;;;;18.55;14.75;;;;;;;10.92;59.52;99486.22;4051202;29;20567;-62
2022/04/22 01:53:06;;;;;;;18.40;14.93;;;;;;;10.91;59.51;99484.50;4037354;29;20583;-62
2022/04/22 01:55:10;;;;;;;22.45;14.65;;;;;;;10.94;59.18;99487.09;4036076;29;20481;-62
2022/04/22 01:57:13;;;;;;;19.67;13.57;;;;;;;10.88;59.77;99485.38;4029545;29;20117;-62
2022/04/22 01:59:16;;;;;;;18.85;15.70;;;;;;;10.90;59.61;99486.22;4036268;29;20427;-62
2022/04/22 02:01:20;;;;;;;20.52;14.45;;;;;;;10.87;59.42;99477.59;4030592;29;20037;-62
2022/04/22 02:03:23;;;;;;;18.65;15.27;;;;;;;10.91;59.46;99482.75;4036472;29;20377;-62
2022/04/22 02:05:26;;;;;;;19.33;15.00;;;;;;;10.92;59.65;99484.50;4033750;29;20576;-62
2022/04/22 02:07:29;;;;;;;20.65;14.82;;;;;;;10.85;59.55;99485.38;4034875;29;20487;-62
2022/04/22 02:09:32;;;;;;;18.25;14.60;;;;;;;10.87;59.42;99477.59;4035391;29;20211;-62
2022/04/22 02:11:36;;;;;;;19.40;15.80;;;;;;;10.91;59.18;99476.72;4032315;29;20071;-62
2022/04/22 02:13:40;;;;;;;20.48;16.83;;;;;;;10.86;59.44;99475.84;4032029;29;20109;-62
2022/04/22 02:15:43;;;;;;;22.35;16.15;;;;;;;10.87;59.18;99467.19;4035460;29;20470;-62
2022/04/22 02:17:46;;;;;;;22.73;15.13;;;;;;;10.78;59.95;99463.72;4033507;29;20411;-62
2022/04/22 02:19:49;;;;;;;19.77;15.93;;;;;;;10.79;59.79;99467.19;4035588;29;20100;-62
2022/04/22 02:21:53;;;;;;;19.52;15.18;;;;;;;10.76;59.80;99465.47;4038572;29;20432;-62
2022/04/22 02:23:56;;;;;;;18.38;14.35;;;;;;;10.76;59.54;99465.47;4036515;29;20073;-62
2022/04/22 02:25:59;;;;;;;23.60;15.98;;;;;;;10.76;59.75;99462.00;4036866;29;20384;-62
2022/04/22 02:30:24;;;;;;;21.00;14.82;;;;;;;10.69;59.99;99453.38;4047215;29;20407;-62
2022/04/22 02:32:27;;;;;;;20.08;15.57;;;;;;;10.70;59.87;99462.88;4033515;29;20474;-62
2022/04/22 02:34:31;;;;;;;18.88;15.25;;;;;;;10.61;59.88;99455.09;4035009;29;20053;-61
2022/04/22 02:36:34;;;;;;;25.50;16.00;;;;;;;10.55;60.33;99457.72;4037122;29;20132;-62
2022/04/22 02:38:38;;;;;;;23.02;15.05;;;;;;;10.53;60.05;99457.72;4037058;29;20128;-62
2022/04/22 02:45:28;;;;;;;18.98;14.55;;;;;;;10.27;61.21;99444.75;4006613;29;20059;-62
2022/04/22 02:47:31;;;;;;;20.00;16.25;;;;;;;10.17;61.17;99433.50;4036932;29;20459;-63
2022/04/22 02:49:34;;;;;;;18.90;15.13;;;;;;;10.14;61.50;99439.53;4037415;29;20040;-63
2022/04/22 02:51:37;;;;;;;20.92;15.43;;;;;;;10.09;61.62;99446.47;4037522;29;20410;-62
2022/04/22 02:53:40;;;;;;;20.00;14.98;;;;;;;10.07;61.69;99440.41;4037796;29;20594;-62
2022/04/22 02:55:49;;;;;;;19.65;14.00;;;;;;;10.08;61.64;99434.34;4037175;29;20053;-62
2022/04/22 02:57:52;;;;;;;21.60;15.25;;;;;;;10.11;61.50;99443.88;4038046;29;20062;-62
2022/04/22 02:59:56;;;;;;;19.63;15.10;;;;;;;10.09;61.30;99436.09;4034967;29;20037;-62
2022/04/22 03:02:00;;;;;;;16.45;13.20;;;;;;;10.10;61.55;99423.97;4032601;29;20041;-62
2022/04/22 03:04:04;;;;;;;20.30;14.63;;;;;;;10.04;61.58;99432.63;4036521;29;20172;-62
2022/04/22 03:06:07;;;;;;;18.90;14.43;;;;;;;10.03;61.72;99430.91;4037930;29;20053;-62
2022/04/22 03:08:10;;;;;;;18.27;15.00;;;;;;;9.92;61.71;99428.31;4036456;29;20098;-62
2022/04/22 03:10:13;;;;;;;20.98;14.60;;;;;;;10.02;61.68;99428.31;4031088;29;20057;-62
2022/04/22 03:12:16;;;;;;;20.83;14.32;;;;;;;9.88;61.96;99431.75;4037253;29;20029;-62
2022/04/22 03:14:19;;;;;;;19.50;15.05;;;;;;;9.87;62.15;99430.03;4038025;29;20064;-62
2022/04/22 03:16:26;;;;;;;20.77;15.25;;;;;;;9.77;62.44;99436.09;4037905;29;20069;-62
2022/04/22 03:18:30;;;;;;;21.92;16.23;;;;;;;9.79;62.40;99437.81;4036869;29;20038;-62
2022/04/22 03:20:33;;;;;;;24.17;15.95;;;;;;;9.82;62.26;99429.16;4038152;29;20049;-62
2022/04/22 03:22:36;;;;;;;20.95;15.70;;;;;;;9.75;62.29;99427.44;4036702;29;20037;-62
2022/04/22 03:24:39;;;;;;;19.90;14.32;;;;;;;9.58;62.88;99437.81;4041893;29;20093;-63
2022/04/22 03:26:42;;;;;;;22.35;16.35;;;;;;;9.55;62.96;99422.19;4038045;29;20157;-62
2022/04/22 03:28:45;;;;;;;21.98;15.77;;;;;;;9.64;62.69;99426.53;4038594;29;20043;-63
2022/04/22 03:30:49;;;;;;;21.85;16.10;;;;;;;9.61;63.10;99430.03;4033062;29;20132;-62
2022/04/22 03:32:52;;;;;;;24.02;17.35;;;;;;;9.61;62.63;99432.63;4038935;29;20056;-62
2022/04/22 03:34:56;;;;;;;23.38;16.50;;;;;;;9.57;63.11;99425.69;4041069;29;20104;-62
2022/04/22 03:36:59;;;;;;;19.67;15.48;;;;;;;9.61;62.82;99432.63;4039916;29;20045;-62
2022/04/22 03:39:02;;;;;;;22.30;15.95;;;;;;;9.51;63.37;99434.31;4040583;29;20048;-62
2022/04/22 03:41:05;;;;;;;20.63;15.95;;;;;;;9.53;63.38;99434.31;4040530;29;20076;-62
2022/04/22 03:43:08;;;;;;;22.95;15.73;;;;;;;9.39;63.68;99429.97;4041791;29;20053;-62
2022/04/22 03:45:11;;;;;;;22.83;16.48;;;;;;;9.44;63.67;99429.97;4022311;29;20145;-62
2022/04/22 03:47:14;;;;;;;23.42;16.13;;;;;;;9.34;63.87;99426.50;4033509;29;20093;-62
2022/04/22 03:49:17;;;;;;;21.30;16.15;;;;;;;9.30;63.75;99424.78;4041792;29;20046;-62
2022/04/22 03:51:21;;;;;;;21.92;15.93;;;;;;;9.33;64.12;99426.47;4037187;29;20045;-62
2022/04/22 03:53:24;;;;;;;19.42;14.70;;;;;;;9.28;64.16;99421.28;4041746;29;20119;-62
2022/04/22 03:55:27;;;;;;;22.20;17.02;;;;;;;9.43;64.22;99426.53;4041533;29;20073;-62
2022/04/22 03:59:50;;;;;;;22.35;17.60;;;;;;;9.42;63.96;99432.56;4040991;29;20139;-62
2022/04/22 04:01:54;;;;;;;21.83;17.38;;;;;;;9.39;64.36;99423.94;4041737;29;20051;-62
2022/04/22 04:03:57;;;;;;;22.98;16.92;;;;;;;9.47;63.67;99423.94;4042442;29;20575;-62
2022/04/22 04:05:59;;;;;;;22.90;18.48;;;;;;;9.36;64.24;99419.59;4044624;29;20127;-63
2022/04/22 04:08:04;;;;;;;27.60;18.50;;;;;;;9.33;64.28;99422.19;4042485;29;20045;-62
2022/04/22 04:17:10;;;;;;;24.10;18.65;;;;;;;9.37;64.05;99418.72;4040999;29;20049;-62
2022/04/22 04:23:56;;;;;;;27.10;19.58;;;;;;;9.13;64.67;99418.66;4043046;29;20048;-62
2022/04/22 04:25:59;;;;;;;29.35;19.95;;;;;;;9.11;65.15;99415.19;4042913;29;20064;-62
2022/04/22 04:28:03;;;;;;;26.55;19.67;;;;;;;9.11;65.11;99415.19;4042902;29;20048;-62
2022/04/22 04:30:08;;;;;;;27.75;19.42;;;;;;;9.09;65.24;99415.19;4052416;29;20068;-62
2022/04/22 04:32:11;;;;;;;25.85;19.65;;;;;;;9.07;65.07;99419.50;4019016;29;20054;-62
2022/04/22 04:34:14;;;;;;;26.63;20.35;;;;;;;9.08;65.26;99414.34;4042904;29;20081;-62
2022/04/22 04:36:17;;;;;;;28.48;20.83;;;;;;;9.09;65.52;99413.44;4039750;29;20091;-62
2022/04/22 04:38:20;;;;;;;28.17;21.55;;;;;;;9.09;65.28;99416.03;4042358;29;20061;-62
2022/04/22 04:40:25;;;;;;;28.05;19.83;;;;;;;9.13;65.38;99414.34;4043135;29;20049;-62
2022/04/22 04:42:28;;;;;;;;;;;;;;;9.00;65.40;99418.63;4028680;29;20046;-63
2022/04/22 04:44:30;;;;;;;26.52;19.67;;;;;;;9.00;65.53;99410.84;4043512;29;20107;-62
2022/04/22 04:46:34;;;;;;;30.17;20.50;;;;;;;9.01;65.29;99417.75;4041566;29;20059;-62
2022/04/22 04:48:37;;;;;;;27.33;20.60;;;;;;;9.04;65.32;99409.13;4035035;29;20040;-62
2022/04/22 04:50:43;;;;;;;34.33;21.73;;;;;;;9.05;65.49;99421.22;4040785;29;20044;-62
2022/04/22 04:52:46;;;;;;;30.20;20.48;;;;;;;9.04;65.38;99415.19;4043151;29;20084;-62
2022/04/22 04:54:50;;;;;;;32.15;22.63;;;;;;;9.11;65.68;99410.00;4027495;29;20044;-62
2022/04/22 04:56:54;;;;;;;28.27;20.90;;;;;;;9.19;64.96;99414.34;4043232;29;20044;-62
2022/04/22 04:58:57;;;;;;;28.33;20.55;;;;;;;9.22;64.98;99416.94;4043220;29;20068;-62
2022/04/22 05:01:00;;;;;;;31.02;21.10;;;;;;;9.26;64.85;99420.44;4043347;29;20096;-63
2022/04/22 05:03:03;;;;;;;31.20;20.75;;;;;;;9.23;65.35;99423.03;4032989;29;20041;-63
2022/04/22 05:05:09;;;;;;;32.03;22.05;;;;;;;9.30;65.14;99426.47;4038869;29;20044;-62
2022/04/22 05:07:11;;;;;;;33.75;21.40;;;;;;;9.32;65.16;99425.63;4017208;29;20603;-62
2022/04/22 05:09:14;;;;;;;39.60;21.52;;;;;;;9.31;65.00;99423.88;4038388;29;20048;-62
2022/04/22 05:11:17;;;;;;;28.10;20.80;;;;;;;9.30;64.82;99422.19;4040907;29;20046;-62
2022/04/22 05:13:21;;;;;;;32.08;20.88;;;;;;;9.30;65.02;99417.00;4038507;29;20038;-62
2022/04/22 05:15:25;;;;;;;30.58;21.77;;;;;;;9.33;64.86;99416.13;4039129;29;20068;-62
2022/04/22 05:17:28;;;;;;;28.40;21.75;;;;;;;9.30;64.98;99417.00;4043308;29;20051;-62
2022/04/22 05:19:31;;;;;;;31.95;21.80;;;;;;;9.32;64.85;99420.44;4043659;29;20068;-62
2022/04/22 05:21:34;;;;;;;27.10;21.75;;;;;;;9.28;65.30;99417.84;4037939;29;20056;-62
2022/04/22 05:23:37;;;;;;;31.13;21.13;;;;;;;9.26;65.31;99417.84;4034584;29;20067;-62
2022/04/22 05:25:40;;;;;;;32.42;22.00;;;;;;;9.40;64.55;99412.66;4055190;29;20531;-62
2022/04/22 05:27:43;;;;;;;32.08;22.85;;;;;;;9.43;64.57;99413.56;4042370;29;20041;-62
2022/04/22 05:34:29;;;;;;;33.28;22.42;;;;;;;9.45;64.41;99421.34;4038268;29;20041;-62
2022/04/22 05:36:32;;;;;;;31.95;21.77;;;;;;;9.50;64.45;99423.94;4038300;29;20530;-62
2022/04/22 05:38:35;;;;;;;35.22;21.73;;;;;;;9.43;64.80;99423.94;4033204;29;20100;-64
2022/04/22 05:40:39;;;;;;;35.67;23.02;;;;;;;9.52;64.33;99427.38;4033960;29;20141;-63
2022/04/22 05:42:42;;;;;;;30.75;21.58;;;;;;;9.50;64.94;99419.59;4033289;29;20039;-62
2022/04/22 05:44:45;;;;;;;36.72;23.40;;;;;;;9.55;64.69;99424.78;4033331;29;20041;-65
2022/04/22 05:46:50;;;;;;;31.48;22.25;;;;;;;9.68;64.30;99423.09;4034095;29;20037;-67
2022/04/22 05:48:53;;;;;;;44.35;21.77;;;;;;;9.70;64.19;99419.63;4033933;29;20041;-65
2022/04/22 05:50:56;;;;;;;33.10;22.33;;;;;;;9.70;64.24;99417.03;4032075;29;20124;-63
2022/04/22 05:52:59;;;;;;;24.65;19.75;;;;;;;9.72;64.26;99414.44;4033309;29;20033;-68
2022/04/22 05:55:04;;;;;;;32.80;21.58;;;;;;;9.89;63.86;99409.28;4033425;29;20056;-62
2022/04/22 05:57:07;;;;;;;;;;;;;;;9.77;64.12;99408.41;4037717;29;20044;-63
2022/04/22 05:59:10;;;;;;;30.63;19.83;;;;;;;9.81;63.99;99403.22;4033099;29;19924;-62
2022/04/22 06:01:13;;;;;;;29.80;20.77;;;;;;;9.85;63.76;99399.75;4028139;29;20036;-62
2022/04/22 06:03:18;;;;;;;36.10;21.90;;;;;;;9.90;63.69;99405.78;4033754;29;20062;-63
2022/04/22 06:05:22;;;;;;;31.08;21.42;;;;;;;9.95;63.59;99398.88;4033448;29;20120;-62
2022/04/22 06:07:25;;;;;;;33.67;22.17;;;;;;;10.04;63.12;99396.28;4032955;29;20045;-62
2022/04/22 06:11:49;;;;;;;28.20;20.95;;;;;;;10.01;63.24;99390.22;4032417;29;20051;-62
2022/04/22 06:13:52;;;;;;;36.15;20.85;;;;;;;10.07;63.07;99375.50;4032297;29;20029;-62
2022/04/22 06:15:55;;;;;;;32.97;23.10;;;;;;;10.10;62.91;99383.31;4030568;29;20169;-62
2022/04/22 06:17:58;;;;;;;31.25;22.77;;;;;;;10.06;63.24;99378.97;4031645;29;20108;-63
2022/04/22 06:20:03;;;;;;;36.15;21.60;;;;;;;10.02;63.40;99381.59;4033347;29;20127;-63
2022/04/22 06:22:06;;;;;;;34.72;23.42;;;;;;;10.04;63.57;99380.69;4033751;29;20072;-63
2022/04/22 06:24:10;;;;;;;32.97;21.48;;;;;;;10.14;63.26;99378.97;4034893;29;20082;-66
2022/04/22 06:26:13;;;;;;;25.83;19.45;;;;;;;10.14;63.27;99387.59;4042388;29;20037;-63
2022/04/22 06:28:16;;;;;;;30.73;21.80;;;;;;;10.28;63.08;99389.34;4050893;29;20140;-63
2022/04/22 06:30:21;;;;;;;27.05;18.45;;;;;;;10.26;63.44;99396.25;4050114;29;20148;-63
2022/04/22 06:32:26;;;;;;;31.75;20.50;;;;;;;10.46;62.80;99391.06;4036926;29;20496;-63
2022/04/22 06:34:28;;;;;;;;;;;;;;;10.61;61.66;99387.53;4037440;29;20045;-63
2022/04/22 06:36:33;;;;;;;30.15;20.90;;;;;;;10.56;61.68;99384.97;4036764;29;20066;-63
2022/04/22 06:38:37;;;;;;;33.28;22.88;;;;;;;10.59;61.63;99394.47;4036658;29;20100;-63
2022/04/22 06:47:44;;;;;;;26.38;19.10;;;;;;;10.79;60.97;99387.47;4033260;29;20144;-63
2022/04/22 06:49:48;;;;;;;33.33;20.80;;;;;;;10.81;61.16;99379.66;4032020;29;20049;-63
2022/04/22 06:51:53;;;;;;;28.17;19.80;;;;;;;10.95;60.49;99387.38;4033999;29;20068;-63
2022/04/22 06:53:56;;;;;;;26.52;20.05;;;;;;;10.93;60.20;99383.94;4024891;29;20052;-63
2022/04/22 06:56:01;;;;;;;28.05;22.33;;;;;;;11.07;60.58;99387.34;4027960;29;20041;-63
2022/04/22 06:58:08;;;;;;;;;;;;;;;10.93;59.74;99384.81;4028778;29;20472;-64
2022/04/22 07:00:13;;;;;;;35.97;21.17;;;;;;;11.10;60.14;99376.94;4027485;29;19931;-63
2022/04/22 07:02:17;;;;;;;24.77;19.60;;;;;;;11.12;60.04;99369.97;4028282;29;20045;-62
2022/04/22 07:04:21;;;;;;;24.38;19.80;;;;;;;11.23;59.20;99369.03;4025290;29;20045;-63
2022/04/22 07:06:25;;;;;;;21.65;17.70;;;;;;;11.28;59.15;99369.88;4006661;29;20128;-63
2022/04/22 07:08:30;;;;;;;28.10;19.88;;;;;;;11.45;57.85;99365.44;4023098;29;20049;-63
2022/04/22 07:10:34;;;;;;;27.17;19.40;;;;;;;11.48;57.91;99362.81;4025133;29;20132;-63
2022/04/22 07:12:38;;;;;;;23.67;17.50;;;;;;;11.53;56.93;99362.75;4025345;29;20109;-63
2022/04/22 07:14:44;;;;;;;22.17;17.88;;;;;;;11.50;57.21;99363.66;4041796;29;20048;-62
2022/04/22 07:16:48;;;;;;;22.13;17.13;;;;;;;11.59;57.40;99367.91;4030902;29;20045;-62
2022/04/22 07:18:52;;;;;;;22.15;17.45;;;;;;;11.73;56.28;99362.63;4032559;29;20049;-63
2022/04/22 07:20:58;;;;;;;21.70;17.50;;;;;;;11.70;56.20;99367.84;4030719;29;20548;-63
2022/04/22 07:23:01;;;;;;;22.48;16.85;;;;;;;11.75;56.56;99363.47;4031196;29;20041;-63
2022/04/22 07:25:08;;;;;;;23.13;17.95;;;;;;;11.72;56.97;99360.88;4030564;29;20088;-63
2022/04/22 07:27:11;;;;;;;23.95;18.42;;;;;;;11.73;57.08;99359.16;4023846;29;20101;-62
2022/04/22 07:29:15;;;;;;;23.13;17.42;;;;;;;11.74;57.34;99361.75;4036388;29;20791;-63
2022/04/22 07:31:19;;;;;;;21.08;16.30;;;;;;;11.81;56.50;99358.22;4030178;29;20153;-65
2022/04/22 07:33:22;;;;;;;27.40;17.55;;;;;;;12.02;56.35;99359.78;4033126;29;20049;-64
2022/04/22 07:35:26;;;;;;;21.63;17.05;;;;;;;12.10;55.42;99359.69;4037382;29;20053;-64
2022/04/22 07:37:29;;;;;;;18.95;14.85;;;;;;;11.92;56.13;99365.06;4025216;29;20044;-61
2022/04/22 07:39:32;;;;;;;21.48;16.90;;;;;;;11.90;56.40;99359.00;4042628;29;20063;-62
2022/04/22 07:41:39;;;;;;;19.13;15.70;;;;;;;12.08;55.54;99366.69;4024265;29;20145;-60
2022/04/22 07:48:35;;;;;;;19.80;14.32;;;;;;;12.42;54.08;99362.88;4003848;29;20057;-67
2022/04/22 07:50:38;;;;;;;16.67;13.40;;;;;;;12.47;54.88;99361.94;4037077;29;20048;-68
2022/04/22 07:52:44;;;;;;;21.10;16.08;;;;;;;12.56;54.15;99358.38;4027819;29;20045;-65
2022/04/22 07:54:47;;;;;;;21.42;17.10;;;;;;;12.63;54.83;99366.97;4026479;29;20038;-60
2022/04/22 07:56:52;;;;;;;18.67;15.80;;;;;;;12.90;53.08;99361.41;4029251;29;20076;-61
2022/04/22 07:58:56;;;;;;;21.83;15.38;;;;;;;12.97;52.07;99361.34;4027017;29;20050;-60
2022/04/22 08:01:00;;;;;;;20.38;14.30;;;;;;;12.73;52.32;99358.13;4041909;29;20096;-60
2022/04/22 08:03:03;;;;;;;20.30;15.23;;;;;;;12.88;51.85;99350.13;4025472;29;20045;-60
2022/04/22 08:05:07;;;;;;;21.13;14.55;;;;;;;13.06;51.81;99345.56;4040167;29;20076;-60
2022/04/22 08:07:13;;;;;;;20.58;15.77;;;;;;;12.84;51.72;99351.06;4031440;29;20070;-61
2022/04/22 08:09:25;;;;;;;18.40;15.07;;;;;;;12.88;52.05;99352.75;4030603;29;20072;-60
2022/04/22 08:11:30;;;;;;;16.10;12.75;;;;;;;12.77;52.77;99353.78;4026709;29;20045;-60
2022/04/22 08:13:35;;;;;;;19.33;14.50;;;;;;;12.98;51.93;99348.28;4014792;29;20044;-60
2022/04/22 08:15:38;;;;;;;;;;;;;;;13.06;51.62;99343.78;4042097;29;20056;-60
2022/04/22 08:17:41;;;;;;;18.00;14.25;;;;;;;13.09;51.56;99342.91;4040240;29;19979;-60
2022/04/22 08:19:46;;;;;;;17.75;14.07;;;;;;;13.22;51.44;99347.06;4010772;29;20525;-60
2022/04/22 08:21:49;;;;;;;15.30;12.95;;;;;;;13.17;50.94;99337.56;4026361;29;20076;-61
2022/04/22 08:23:52;;;;;;;18.90;15.20;;;;;;;13.16;51.46;99341.94;4032581;29;20057;-60
2022/04/22 08:25:57;;;;;;;16.25;13.70;;;;;;;13.28;50.65;99340.88;4049531;29;20044;-60
2022/04/22 08:28:02;;;;;;;22.15;14.32;;;;;;;13.30;50.07;99338.25;4024831;29;20038;-61
2022/04/22 08:30:08;;;;;;;18.15;13.55;;;;;;;13.17;51.17;99328.00;4024138;29;20068;-61
2022/04/22 08:32:11;;;;;;;16.23;13.45;;;;;;;13.34;50.44;99324.28;4033184;29;20041;-60
2022/04/22 08:34:15;;;;;;;18.08;14.68;;;;;;;13.44;50.43;99331.09;4046882;29;20055;-61
2022/04/22 08:36:20;;;;;;;16.90;13.88;;;;;;;13.47;50.39;99323.22;4030183;29;20044;-61
2022/04/22 08:38:24;;;;;;;;;;;;;;;13.59;49.63;99324.75;4022790;29;20143;-61
2022/04/22 08:40:31;;;;;;;17.30;12.65;;;;;;;13.57;49.53;99322.19;4021238;29;19924;-59
2022/04/22 08:42:36;;;;;;;14.18;11.80;;;;;;;13.64;50.37;99322.06;4010001;29;20500;-59
2022/04/22 08:44:39;;;;;;;16.13;13.27;;;;;;;13.82;49.09;99316.53;4026200;29;21407;-59
2022/04/22 08:51:25;;;;;;;14.82;13.07;;;;;;;14.05;48.87;99307.44;4037262;29;20431;-59
2022/04/22 08:53:30;;;;;;;18.67;12.27;;;;;;;14.06;49.24;99310.03;4021723;29;20053;-60
2022/04/22 08:55:34;;;;;;;17.25;12.40;;;;;;;14.19;49.15;99304.56;4022909;29;20049;-59
2022/04/22 08:57:37;;;;;;;16.67;12.90;;;;;;;14.36;47.65;99306.84;4021626;29;20124;-59
2022/04/22 08:59:42;;;;;;;14.70;11.77;;;;;;;14.26;47.91;99307.00;4020814;29;20044;-60
2022/04/22 09:01:46;;;;;;;15.18;11.85;;;;;;;14.27;48.13;99303.50;4022848;29;20152;-59
2022/04/22 09:03:49;;;;;;;13.55;10.85;;;;;;;14.43;48.10;99304.06;4021634;29;20078;-59
2022/04/22 09:05:52;;;;;;;17.90;12.95;;;;;;;14.70;47.27;99295.72;4022832;29;20033;-59
2022/04/22 09:07:55;;;;;;;17.33;11.50;;;;;;;14.69;46.68;99286.13;4021223;29;20045;-59
2022/04/22 09:09:57;;;;;;;15.15;12.70;;;;;;;14.79;47.28;99290.28;4022720;29;20534;-59
2022/04/22 09:12:08;;;;;;;16.55;12.45;;;;;;;14.68;47.11;99290.50;4021485;29;20532;-59
2022/04/22 09:14:15;;;;;;;16.15;11.35;;;;;;;14.58;47.27;99292.41;4022760;29;20060;-59
2022/04/22 09:16:22;;;;;;;14.98;11.55;;;;;;;14.81;46.10;99284.13;4022757;29;20068;-60
2022/04/22 09:18:26;;;;;;;13.85;11.52;;;;;;;14.84;46.44;99277.97;4022410;29;20055;-60
2022/04/22 09:20:31;;;;;;;14.85;12.05;;;;;;;14.81;46.54;99283.28;4022596;29;20047;-60
2022/04/22 09:22:35;;;;;;;13.25;11.32;;;;;;;14.83;46.27;99271.88;4022637;29;20084;-60
2022/04/22 09:24:47;;;;;;;17.10;12.35;;;;;;;15.09;46.61;99272.16;4021262;29;20505;-60
2022/04/22 09:27:04;;;;;;;13.13;11.30;;;;;;;14.91;47.27;99276.06;4020933;29;20057;-60
2022/04/22 09:29:10;;;;;;;22.85;12.63;;;;;;;15.16;45.83;99264.13;4021506;29;20049;-60
2022/04/22 09:31:13;;;;;;;20.67;12.35;;;;;;;15.31;44.97;99260.28;4020595;29;20132;-60
2022/04/22 09:33:16;;;;;;;13.98;11.55;;;;;;;15.29;45.60;99262.06;4022379;29;20061;-60
2022/04/22 09:35:22;;;;;;;13.57;10.90;;;;;;;15.15;45.38;99253.69;4021246;29;20072;-60
2022/04/22 09:42:39;;;;;;;12.40;10.23;;;;;;;15.48;44.32;99243.28;4022312;29;20460;-60
2022/04/22 09:44:42;;;;;;;11.70;9.80;;;;;;;15.52;45.40;99245.78;4022240;29;20056;-60
2022/04/22 09:46:45;;;;;;;14.82;10.15;;;;;;;15.65;44.51;99250.69;4021858;29;20060;-61
2022/04/22 09:49:11;;;;;;;12.75;9.93;;;;;;;15.70;44.33;99254.06;4021083;29;20067;-61
2022/04/22 09:51:24;;;;;;;12.90;9.90;;;;;;;15.81;43.72;99245.94;4022193;29;20049;-60
2022/04/22 09:53:33;;;;;;;11.70;8.88;;;;;;;15.81;43.85;99238.09;4020876;29;20050;-60
2022/04/22 09:55:38;;;;;;;10.93;8.65;;;;;;;15.77;43.93;99245.16;4022146;29;20496;-61
2022/04/22 09:57:52;;;;;;;11.63;9.02;;;;;;;16.01;44.20;99241.03;4035923;29;20129;-60
2022/04/22 09:59:56;;;;;;;10.93;9.18;;;;;;;16.25;42.95;99243.84;4022150;29;20053;-60
2022/04/22 10:02:00;;;;;;;10.63;8.75;;;;;;;16.35;43.00;99236.56;4022014;29;20050;-60
2022/04/22 10:04:11;;;;;;;10.13;8.82;;;;;;;16.43;41.98;99225.84;4022035;29;20053;-60
2022/04/22 10:06:14;;;;;;;9.43;8.27;;;;;;;16.29;42.35;99226.28;4022005;29;20069;-60
2022/04/22 10:08:22;;;;;;;10.48;8.52;;;;;;;16.46;42.39;99217.91;4022059;29;20354;-60
2022/04/22 10:10:30;;;;;;;13.75;8.98;;;;;;;16.55;42.11;99228.97;4022024;29;20529;-60
2022/04/22 10:12:36;;;;;;;11.70;9.30;;;;;;;16.60;42.10;99213.09;4021920;29;20052;-60
2022/04/22 10:14:40;;;;;;;11.50;7.60;;;;;;;16.52;42.19;99217.72;4021989;29;20524;-60
2022/04/22 10:16:44;;;;;;;12.43;9.65;;;;;;;16.58;42.20;99213.13;4021529;29;20089;-60
2022/04/22 10:18:48;;;;;;;12.25;10.95;;;;;;;16.81;40.62;99208.94;4021860;29;20041;-61
2022/04/22 10:20:52;;;;;;;13.52;9.75;;;;;;;16.73;40.98;99196.09;4020606;29;20049;-60
2022/04/22 10:22:55;;;;;;;15.05;10.10;;;;;;;16.60;42.10;99207.84;4020560;29;20046;-60
2022/04/22 10:25:03;;;;;;;11.93;9.18;;;;;;;16.81;41.36;99194.97;4035821;29;20049;-60
2022/04/22 10:27:08;;;;;;;11.55;7.85;;;;;;;16.70;42.22;99188.28;4021354;29;20111;-60
2022/04/22 10:29:13;;;;;;;11.80;9.00;;;;;;;16.91;42.24;99196.44;4022173;29;20045;-60